Time;durP1;ratioP1;P1;durP2;ratioP2;P2;SDS_P1;SDS_P2;PMS_P1;PMS_P2;Temp;Humidity;BMP_temperature;BMP_pressure;BME280_temperature;BME280_humidity;BME280_pressure;Samples;Min_cycle;Max_cycle;Signal;HPM_P1;HPM_P2
2023/02/21 02:15:07;;;;;;;9.55;1.45;;;33.70;72.20;;;;;;5050688;28;20029;-63
2023/02/21 02:18:01;;;;;;;4.78;1.67;;;33.50;70.80;;;;;;5050576;28;20060;-63
2023/02/21 02:20:52;;;;;;;6.95;1.70;;;33.70;71.80;;;;;;5050588;28;20103;-63
2023/02/21 02:23:44;;;;;;;12.68;1.73;;;33.70;69.90;;;;;;5050482;28;20762;-64
2023/02/21 02:26:32;;;;;;;8.32;1.63;;;33.60;69.00;;;;;;5049381;28;20029;-63
2023/02/21 02:29:36;;;;;;;6.07;1.90;;;33.50;71.10;;;;;;5050238;28;20021;-63
2023/02/21 02:32:16;;;;;;;8.77;2.35;;;33.50;71.10;;;;;;5049785;28;20091;-64
2023/02/21 02:35:13;;;;;;;7.60;2.08;;;33.60;69.60;;;;;;5050933;28;20473;-63
2023/02/21 02:37:44;;;;;;;7.63;1.85;;;33.50;69.80;;;;;;5050149;28;20489;-64
2023/02/21 02:40:33;;;;;;;6.05;1.67;;;33.50;69.60;;;;;;5050329;28;20031;-64
2023/02/21 02:43:09;;;;;;;7.03;2.05;;;33.70;72.10;;;;;;5050313;28;20029;-64
2023/02/21 02:45:45;;;;;;;7.60;1.58;;;33.70;69.00;;;;;;5050118;28;20013;-64
2023/02/21 02:48:21;;;;;;;6.20;2.35;;;34.00;66.30;;;;;;5050611;28;20416;-64
2023/02/21 02:50:51;;;;;;;7.03;1.45;;;34.30;69.10;;;;;;5050014;28;20386;-65
2023/02/21 02:53:22;;;;;;;3.60;0.98;;;34.00;65.60;;;;;;5049889;28;20097;-65
2023/02/21 02:55:58;;;;;;;5.18;1.52;;;33.50;66.70;;;;;;5050026;28;20021;-65
2023/02/21 02:58:33;;;;;;;9.50;1.70;;;33.30;65.90;;;;;;5050033;28;20234;-64
2023/02/21 03:01:28;;;;;;;4.38;1.52;;;33.60;66.40;;;;;;5048625;28;20517;-65
2023/02/21 03:04:16;;;;;;;5.88;1.50;;;33.70;66.10;;;;;;5048566;28;20440;-64
2023/02/21 03:07:06;;;;;;;7.60;1.67;;;33.90;65.80;;;;;;5050211;28;20024;-64
2023/02/21 03:09:59;;;;;;;6.47;1.65;;;33.90;66.40;;;;;;5048347;28;20033;-64
2023/02/21 03:12:57;;;;;;;7.53;1.50;;;33.60;66.70;;;;;;5048934;28;20032;-65
2023/02/21 03:15:54;;;;;;;6.82;1.42;;;33.30;67.70;;;;;;5049709;28;20056;-65
2023/02/21 03:18:35;;;;;;;7.78;1.40;;;33.00;67.60;;;;;;5049848;28;20060;-66
2023/02/21 03:21:09;;;;;;;6.68;2.00;;;33.10;68.40;;;;;;5049549;28;20025;-66
2023/02/21 03:23:38;;;;;;;9.95;2.00;;;33.30;68.50;;;;;;5049600;28;20040;-65
2023/02/21 03:26:08;;;;;;;4.60;1.30;;;33.50;66.20;;;;;;5049582;28;20028;-65
2023/02/21 03:28:36;;;;;;;8.68;1.65;;;33.70;66.50;;;;;;5048269;28;20036;-65
2023/02/21 03:31:08;;;;;;;6.15;1.23;;;33.50;67.20;;;;;;5049451;28;20048;-66
2023/02/21 03:33:35;;;;;;;6.50;1.48;;;33.60;69.40;;;;;;5049564;28;20021;-66
2023/02/21 03:36:08;;;;;;;4.10;1.38;;;33.80;69.20;;;;;;5049501;28;20029;-65
2023/02/21 03:38:35;;;;;;;9.02;1.60;;;33.80;69.50;;;;;;5049512;28;20036;-65
2023/02/21 03:41:03;;;;;;;9.88;2.08;;;33.60;69.90;;;;;;5049564;28;20025;-66
2023/02/21 03:43:30;;;;;;;8.15;2.03;;;33.70;68.10;;;;;;5050049;28;20029;-65
2023/02/21 03:45:58;;;;;;;5.95;1.40;;;33.50;70.60;;;;;;5053453;28;20017;-64
2023/02/21 03:48:25;;;;;;;6.68;1.40;;;33.50;70.90;;;;;;5053510;28;20040;-64
2023/02/21 03:50:53;;;;;;;6.30;1.73;;;33.90;70.50;;;;;;5053257;28;20108;-65
2023/02/21 03:53:20;;;;;;;6.22;0.98;;;33.70;69.80;;;;;;5053272;28;20060;-66
2023/02/21 03:55:47;;;;;;;5.80;1.80;;;33.50;70.80;;;;;;5053408;28;20083;-66
2023/02/21 03:58:15;;;;;;;6.93;1.35;;;33.10;70.80;;;;;;5052404;28;20040;-66
2023/02/21 04:00:42;;;;;;;6.32;1.00;;;33.10;71.30;;;;;;5053611;28;20051;-67
2023/02/21 04:03:10;;;;;;;4.97;1.13;;;33.10;72.60;;;;;;5053470;28;20025;-65
2023/02/21 04:05:37;;;;;;;9.02;1.17;;;33.20;71.30;;;;;;5051801;28;20409;-65
2023/02/21 04:08:05;;;;;;;7.18;1.48;;;33.10;72.10;;;;;;5052906;28;20104;-65
2023/02/21 04:10:33;;;;;;;5.78;1.10;;;32.50;72.70;;;;;;5053125;28;20063;-66
2023/02/21 04:13:00;;;;;;;5.97;1.17;;;32.40;72.90;;;;;;5052978;28;20028;-66
2023/02/21 04:15:28;;;;;;;4.63;0.98;;;32.60;73.70;;;;;;5053139;28;20068;-66
2023/02/21 04:17:55;;;;;;;8.60;1.25;;;32.60;73.50;;;;;;5052960;28;20037;-66
2023/02/21 04:20:23;;;;;;;6.85;1.67;;;32.70;72.90;;;;;;5051600;28;20021;-65
2023/02/21 04:22:50;;;;;;;4.10;1.58;;;32.60;73.00;;;;;;5035032;28;20033;-65
2023/02/21 04:25:18;;;;;;;7.68;1.10;;;32.40;73.90;;;;;;5052802;28;20013;-66
2023/02/21 04:27:45;;;;;;;4.18;0.90;;;32.30;73.60;;;;;;5053370;28;20021;-66
2023/02/21 04:30:13;;;;;;;5.82;1.30;;;32.30;72.10;;;;;;5051683;28;20071;-66
2023/02/21 04:32:40;;;;;;;7.60;1.00;;;32.10;73.10;;;;;;5052592;28;20057;-66
2023/02/21 04:35:07;;;;;;;3.38;0.93;;;31.90;72.60;;;;;;5051274;28;20155;-65
2023/02/21 04:37:35;;;;;;;5.82;1.10;;;31.80;70.80;;;;;;5051078;28;20552;-65
2023/02/21 04:40:02;;;;;;;5.78;1.05;;;31.80;71.40;;;;;;5052429;28;20017;-66
2023/02/21 04:42:30;;;;;;;4.07;1.27;;;31.40;73.30;;;;;;5052592;28;20025;-67
2023/02/21 04:44:57;;;;;;;6.97;1.10;;;31.50;72.60;;;;;;5052538;28;20059;-65
2023/02/21 04:47:24;;;;;;;6.65;1.13;;;31.50;72.20;;;;;;5052393;28;20025;-63
2023/02/21 04:49:52;;;;;;;4.45;0.75;;;31.30;73.20;;;;;;5050885;28;20028;-64
2023/02/21 04:52:19;;;;;;;4.13;0.63;;;31.20;73.10;;;;;;5052156;28;20032;-64
2023/02/21 04:54:47;;;;;;;6.28;1.25;;;31.00;70.90;;;;;;5051795;28;20017;-64
2023/02/21 04:57:16;;;;;;;6.32;1.50;;;30.70;73.30;;;;;;5052617;28;20037;-65
2023/02/21 04:59:43;;;;;;;10.55;1.30;;;30.70;74.70;;;;;;5052605;28;20437;-64
2023/02/21 05:02:11;;;;;;;7.13;1.05;;;30.80;74.20;;;;;;5052146;28;20159;-64
2023/02/21 05:04:38;;;;;;;5.40;1.20;;;30.90;74.50;;;;;;5052037;28;20100;-64
2023/02/21 05:07:06;;;;;;;5.10;1.17;;;30.70;73.70;;;;;;5051923;28;20430;-63
2023/02/21 05:09:33;;;;;;;5.10;1.13;;;30.50;75.20;;;;;;5051995;28;20159;-64
2023/02/21 05:12:01;;;;;;;10.93;1.33;;;30.50;76.30;;;;;;5052024;28;20025;-64
2023/02/21 05:14:28;;;;;;;7.53;1.15;;;30.40;75.00;;;;;;5051989;28;20017;-64
2023/02/21 05:16:56;;;;;;;4.07;0.82;;;30.30;76.10;;;;;;5051795;28;20066;-64
2023/02/21 05:19:26;;;;;;;4.00;0.95;;;30.30;76.30;;;;;;5050477;28;20095;-65
2023/02/21 05:21:58;;;;;;;5.10;1.98;;;30.40;75.40;;;;;;5051563;28;20152;-65
2023/02/21 05:24:28;;;;;;;4.57;1.00;;;30.20;76.30;;;;;;5051691;28;20021;-65
2023/02/21 05:26:56;;;;;;;5.40;0.98;;;30.30;77.70;;;;;;5051616;28;20028;-66
2023/02/21 05:29:24;;;;;;;4.75;1.00;;;30.20;78.60;;;;;;5051623;28;20028;-63
2023/02/21 05:31:52;;;;;;;4.18;0.93;;;30.00;78.80;;;;;;5050149;28;20049;-63
2023/02/21 05:34:19;;;;;;;8.80;1.58;;;29.70;81.00;;;;;;5051519;28;20025;-64
2023/02/21 05:36:47;;;;;;;6.68;1.00;;;29.60;84.40;;;;;;5051900;28;20044;-64
2023/02/21 05:39:14;;;;;;;8.05;1.20;;;29.60;87.10;;;;;;5051923;28;20021;-64
2023/02/21 05:41:50;;;;;;;9.05;1.63;;;29.50;88.80;;;;;;5051524;28;20021;-64
2023/02/21 05:44:18;;;;;;;1.80;0.82;;;29.60;90.10;;;;;;5051871;28;20098;-64
2023/02/21 05:46:45;;;;;;;8.63;1.20;;;29.40;91.30;;;;;;5051775;28;20021;-63
2023/02/21 05:49:13;;;;;;;7.32;0.95;;;29.40;92.00;;;;;;5051257;28;20091;-64
2023/02/21 05:51:42;;;;;;;6.85;1.42;;;29.20;92.70;;;;;;5051129;28;20032;-64
2023/02/21 05:54:15;;;;;;;7.82;1.85;;;29.20;93.50;;;;;;5051306;28;20106;-64
2023/02/21 05:56:44;;;;;;;6.80;1.25;;;29.10;94.30;;;;;;5050936;28;20071;-64
2023/02/21 05:59:12;;;;;;;9.98;1.60;;;29.00;95.40;;;;;;5051131;28;20063;-64
2023/02/21 06:01:39;;;;;;;4.72;1.13;;;28.90;95.30;;;;;;5050962;28;20104;-64
2023/02/21 06:04:07;;;;;;;5.47;1.15;;;28.60;97.00;;;;;;5050980;28;20025;-64
2023/02/21 06:06:35;;;;;;;7.60;1.25;;;28.50;97.80;;;;;;5049807;28;20075;-64
2023/02/21 06:09:04;;;;;;;7.35;1.45;;;28.30;98.10;;;;;;5050770;28;20474;-64
2023/02/21 06:11:36;;;;;;;8.13;1.27;;;28.10;99.40;;;;;;5050906;28;20025;-64
2023/02/21 06:14:06;;;;;;;9.57;1.40;;;27.90;99.90;;;;;;5050566;28;20040;-63
2023/02/21 06:16:39;;;;;;;5.78;1.10;;;27.80;99.90;;;;;;5049321;28;20409;-64
2023/02/21 06:19:08;;;;;;;8.10;1.20;;;27.70;99.90;;;;;;5050681;28;20470;-64
2023/02/21 06:21:37;;;;;;;5.53;1.00;;;27.70;99.90;;;;;;5050458;28;20039;-65
2023/02/21 06:24:05;;;;;;;4.75;1.00;;;27.70;99.90;;;;;;5050546;28;20021;-64
2023/02/21 06:26:33;;;;;;;15.20;2.10;;;27.70;99.90;;;;;;5050323;28;20052;-65
2023/02/21 06:29:00;;;;;;;7.20;2.08;;;27.70;99.90;;;;;;5050504;28;20021;-65
2023/02/21 06:31:27;;;;;;;7.40;1.42;;;27.60;99.90;;;;;;5048836;28;20052;-64
2023/02/21 06:33:55;;;;;;;7.03;1.20;;;27.60;99.90;;;;;;5049206;28;20028;-65
2023/02/21 06:36:26;;;;;;;12.00;2.03;;;27.50;99.90;;;;;;5050491;28;20095;-64
2023/02/21 06:38:55;;;;;;;6.72;1.50;;;27.20;99.90;;;;;;5050155;28;20021;-64
2023/02/21 06:41:30;;;;;;;9.63;1.75;;;27.10;99.90;;;;;;5049022;28;20028;-64
2023/02/21 06:43:59;;;;;;;10.13;2.55;;;27.00;99.90;;;;;;5050325;28;20036;-65
2023/02/21 06:46:29;;;;;;;7.57;1.75;;;27.10;99.90;;;;;;5050128;28;20029;-65
2023/02/21 06:48:57;;;;;;;5.68;1.20;;;27.10;99.90;;;;;;5048747;28;20060;-65
2023/02/21 06:51:33;;;;;;;9.75;1.83;;;27.10;99.90;;;;;;5048331;28;20025;-65
2023/02/21 06:54:01;;;;;;;10.38;1.92;;;27.10;99.90;;;;;;5050022;28;20036;-64
2023/02/21 06:56:29;;;;;;;7.75;2.63;;;27.00;99.90;;;;;;5050055;28;20425;-64
2023/02/21 06:58:57;;;;;;;10.45;1.83;;;26.90;99.90;;;;;;5049878;28;20112;-65
2023/02/21 07:01:29;;;;;;;12.18;1.50;;;26.80;99.90;;;;;;5049979;28;20025;-64
2023/02/21 07:03:58;;;;;;;5.20;1.17;;;26.60;99.90;;;;;;5049734;28;20036;-63
2023/02/21 07:06:25;;;;;;;7.00;1.30;;;26.60;99.90;;;;;;5049857;28;20033;-63
2023/02/21 07:08:53;;;;;;;12.80;2.05;;;26.70;99.90;;;;;;5049695;28;20028;-64
2023/02/21 07:11:20;;;;;;;10.43;2.20;;;26.60;99.90;;;;;;5049780;28;20033;-64
2023/02/21 07:13:51;;;;;;;14.30;2.30;;;26.50;99.90;;;;;;5050300;28;20025;-63
2023/02/21 07:16:20;;;;;;;14.93;2.55;;;26.20;99.90;;;;;;5048638;28;20025;-64
2023/02/21 07:18:47;;;;;;;12.98;2.70;;;25.90;99.90;;;;;;5049873;28;20530;-64
2023/02/21 07:21:16;;;;;;;9.20;2.55;;;25.70;99.90;;;;;;5049842;28;20025;-64
2023/02/21 07:23:45;;;;;;;13.50;3.25;;;25.60;99.90;;;;;;5049684;28;20021;-64
2023/02/21 07:26:13;;;;;;;10.48;2.38;;;25.50;99.90;;;;;;5049979;28;20234;-64
2023/02/21 07:28:41;;;;;;;11.80;2.33;;;25.40;99.90;;;;;;5049666;28;20025;-64
2023/02/21 07:31:09;;;;;;;7.00;2.35;;;25.20;99.90;;;;;;5047974;28;20087;-64
2023/02/21 07:33:37;;;;;;;7.25;1.40;;;25.00;99.90;;;;;;5049555;28;20129;-64
2023/02/21 07:36:05;;;;;;;10.63;2.30;;;24.90;99.90;;;;;;5049384;28;20107;-64
2023/02/21 07:38:32;;;;;;;4.60;1.70;;;24.80;99.90;;;;;;5049547;28;20039;-64
2023/02/21 07:41:02;;;;;;;4.80;0.80;;;24.70;99.90;;;;;;5049457;28;20381;-64
2023/02/21 07:43:31;;;;;;;5.53;1.20;;;24.40;99.90;;;;;;5049512;28;20079;-64
2023/02/21 07:45:58;;;;;;;4.80;0.98;;;24.00;99.90;;;;;;5049497;28;20394;-64
2023/02/21 07:48:26;;;;;;;5.22;1.10;;;23.70;99.90;;;;;;5049458;28;20033;-64
2023/02/21 07:50:53;;;;;;;3.45;1.10;;;23.50;99.90;;;;;;5049126;28;20025;-65
2023/02/21 07:53:21;;;;;;;3.15;0.90;;;23.30;99.90;;;;;;5049475;28;20059;-65
2023/02/21 07:55:48;;;;;;;6.22;1.35;;;23.10;99.90;;;;;;5048488;28;20025;-64
2023/02/21 07:58:16;;;;;;;3.05;1.00;;;23.10;99.90;;;;;;5049551;28;20041;-65
2023/02/21 08:00:44;;;;;;;3.50;1.02;;;23.00;99.90;;;;;;5049189;28;20104;-63
2023/02/21 08:03:14;;;;;;;2.42;1.27;;;23.00;99.90;;;;;;5047864;28;20037;-63
2023/02/21 08:05:42;;;;;;;5.35;1.42;;;22.90;99.90;;;;;;5049329;28;20025;-64
2023/02/21 08:08:11;;;;;;;3.97;2.00;;;22.80;99.90;;;;;;5049260;28;20027;-65
2023/02/21 08:10:38;;;;;;;7.03;2.30;;;22.80;99.90;;;;;;5049149;28;20028;-64
2023/02/21 08:13:05;;;;;;;6.30;2.80;;;22.70;99.90;;;;;;5049138;28;20040;-64
2023/02/21 08:15:33;;;;;;;5.63;2.92;;;22.60;99.90;;;;;;5049180;28;20056;-65
2023/02/21 08:18:00;;;;;;;5.38;2.85;;;22.60;99.90;;;;;;5049071;28;20048;-65
2023/02/21 08:20:28;;;;;;;6.70;2.95;;;22.50;99.90;;;;;;5047460;28;20048;-65
2023/02/21 08:22:56;;;;;;;7.65;3.00;;;22.40;99.90;;;;;;5049008;28;20029;-65
2023/02/21 08:25:23;;;;;;;5.05;2.30;;;22.40;99.90;;;;;;5048963;28;20021;-65
2023/02/21 08:27:54;;;;;;;9.35;4.05;;;22.40;99.90;;;;;;5049591;28;20060;-64
2023/02/21 08:30:21;;;;;;;6.45;2.78;;;22.40;99.90;;;;;;5051198;28;20025;-65
2023/02/21 08:32:50;;;;;;;9.43;3.13;;;22.40;99.90;;;;;;5052877;28;20056;-65
2023/02/21 08:35:19;;;;;;;5.53;2.33;;;22.40;99.90;;;;;;5052896;28;20098;-65
2023/02/21 08:37:50;;;;;;;5.38;2.45;;;22.40;99.90;;;;;;5052503;28;20140;-64
2023/02/21 08:40:21;;;;;;;4.18;2.00;;;22.40;99.90;;;;;;5052954;28;20047;-65
2023/02/21 08:42:53;;;;;;;4.32;2.10;;;22.40;99.90;;;;;;5052891;28;20025;-64
2023/02/21 08:45:22;;;;;;;4.90;2.20;;;22.30;99.90;;;;;;5053015;28;20032;-65
2023/02/21 08:47:50;;;;;;;3.80;1.80;;;22.20;99.90;;;;;;5052910;28;20028;-64
2023/02/21 08:50:19;;;;;;;3.20;1.73;;;22.10;99.90;;;;;;5052765;28;20028;-64
2023/02/21 08:52:47;;;;;;;9.98;3.47;;;22.00;99.90;;;;;;5052683;28;20474;-65
2023/02/21 08:55:15;;;;;;;5.60;2.00;;;21.90;99.90;;;;;;5052135;28;20053;-66
2023/02/21 08:57:43;;;;;;;3.63;1.60;;;21.90;99.90;;;;;;5052231;28;20033;-65
2023/02/21 09:00:13;;;;;;;3.42;1.77;;;21.90;99.90;;;;;;5051941;28;20032;-64
2023/02/21 09:02:40;;;;;;;4.38;1.55;;;21.90;99.90;;;;;;5052237;28;20021;-63
2023/02/21 09:05:13;;;;;;;3.13;1.42;;;21.90;99.90;;;;;;5051944;28;20048;-64
2023/02/21 09:07:40;;;;;;;2.63;1.40;;;21.90;99.90;;;;;;5052154;28;20034;-65
2023/02/21 09:10:09;;;;;;;2.92;1.10;;;21.80;99.90;;;;;;5052066;28;20025;-66
2023/02/21 09:12:37;;;;;;;2.90;1.23;;;21.80;99.90;;;;;;5051916;28;20017;-66
2023/02/21 09:15:06;;;;;;;2.60;1.30;;;21.80;99.90;;;;;;5051866;28;20036;-65
2023/02/21 09:17:34;;;;;;;2.25;1.55;;;21.80;99.90;;;;;;5051701;28;20033;-64
2023/02/21 09:20:05;;;;;;;2.20;0.98;;;21.60;99.90;;;;;;5051710;28;20215;-64
2023/02/21 09:22:33;;;;;;;2.80;1.25;;;21.50;99.90;;;;;;5051808;28;20112;-65
2023/02/21 09:25:01;;;;;;;2.17;1.42;;;21.40;99.90;;;;;;5051647;28;20083;-64
2023/02/21 09:27:37;;;;;;;2.25;1.20;;;21.30;99.90;;;;;;5052262;28;20079;-64
2023/02/21 09:30:12;;;;;;;2.13;1.38;;;21.30;99.90;;;;;;5051703;28;20539;-64
2023/02/21 09:32:40;;;;;;;3.75;1.52;;;21.30;99.90;;;;;;5051440;28;20110;-64
2023/02/21 09:35:09;;;;;;;3.55;1.85;;;21.40;99.90;;;;;;5050106;28;20398;-65
2023/02/21 09:37:44;;;;;;;2.28;1.58;;;21.40;99.90;;;;;;5050120;28;20061;-64
2023/02/21 09:40:32;;;;;;;3.30;1.60;;;21.40;99.90;;;;;;5051358;28;20878;-64
2023/02/21 09:43:00;;;;;;;5.30;2.42;;;21.40;99.90;;;;;;5051590;28;20017;-64
2023/02/21 09:45:34;;;;;;;5.75;2.25;;;21.40;99.90;;;;;;5051399;28;20029;-64
2023/02/21 09:48:16;;;;;;;4.50;2.05;;;21.40;99.90;;;;;;5051396;28;20024;-64
2023/02/21 09:50:52;;;;;;;7.43;2.33;;;21.40;99.90;;;;;;5051091;28;20021;-65
2023/02/21 09:53:27;;;;;;;3.83;2.05;;;21.50;99.90;;;;;;5051743;28;20385;-65
2023/02/21 09:56:03;;;;;;;5.20;2.42;;;21.40;99.90;;;;;;5050173;28;20403;-66
2023/02/21 09:58:31;;;;;;;2.80;1.92;;;21.40;99.90;;;;;;5049871;28;20040;-63
2023/02/21 10:01:08;;;;;;;4.20;2.22;;;21.40;99.90;;;;;;5051071;28;20029;-63
2023/02/21 10:04:26;;;;;;;4.38;2.28;;;21.40;99.90;;;;;;5051021;28;20027;-64
2023/02/21 10:06:59;;;;;;;5.55;2.13;;;21.40;99.90;;;;;;5042197;28;20116;-64
2023/02/21 10:09:47;;;;;;;3.90;2.08;;;21.30;99.90;;;;;;5050733;28;20386;-64
2023/02/21 10:12:52;;;;;;;1.98;1.38;;;21.30;99.90;;;;;;5050913;28;20013;-63
2023/02/21 10:15:25;;;;;;;2.10;1.30;;;21.40;99.90;;;;;;5049697;28;20033;-62
2023/02/21 10:18:16;;;;;;;2.77;1.37;;;21.40;99.90;;;;;;5051080;28;20033;-64
2023/02/21 10:20:53;;;;;;;1.95;1.17;;;21.40;99.90;;;;;;5050435;28;20055;-64
2023/02/21 10:23:39;;;;;;;2.10;1.25;;;21.30;99.90;;;;;;5051212;28;20039;-63
2023/02/21 10:26:32;;;;;;;2.58;1.25;;;21.30;99.90;;;;;;5050559;28;20017;-64
2023/02/21 10:29:00;;;;;;;2.78;1.40;;;21.20;99.90;;;;;;5050103;28;20040;-64
2023/02/21 10:31:37;;;;;;;1.90;1.00;;;21.20;99.90;;;;;;5050139;28;20060;-63
2023/02/21 10:34:06;;;;;;;4.57;1.65;;;21.00;99.90;;;;;;5050778;28;20052;-63
2023/02/21 10:36:35;;;;;;;2.95;1.10;;;20.90;99.90;;;;;;5050204;28;20051;-63
2023/02/21 10:39:10;;;;;;;3.30;1.50;;;20.80;99.90;;;;;;5032696;28;20059;-64
2023/02/21 10:41:40;;;;;;;4.32;1.60;;;20.80;99.90;;;;;;5050410;28;20020;-63
2023/02/21 10:44:17;;;;;;;2.85;1.50;;;20.70;99.90;;;;;;5050253;28;20025;-64
2023/02/21 10:46:59;;;;;;;3.67;1.27;;;20.60;99.90;;;;;;5050112;28;20032;-63
2023/02/21 10:49:32;;;;;;;2.97;1.33;;;20.60;99.90;;;;;;5048408;28;20025;-63
2023/02/21 10:52:13;;;;;;;3.30;2.08;;;20.60;99.90;;;;;;5048493;28;20028;-64
2023/02/21 10:54:40;;;;;;;3.45;2.00;;;20.60;99.90;;;;;;5050163;28;20116;-64
2023/02/21 10:57:12;;;;;;;6.90;2.15;;;20.60;99.90;;;;;;5048484;28;20041;-64
2023/02/21 10:59:42;;;;;;;12.32;3.08;;;20.60;99.90;;;;;;5049973;28;20358;-64
2023/02/21 11:02:32;;;;;;;5.15;3.25;;;20.60;99.90;;;;;;5050135;28;20053;-64
2023/02/21 11:05:21;;;;;;;11.15;3.30;;;20.50;99.90;;;;;;5049848;28;20027;-64
2023/02/21 11:08:09;;;;;;;7.53;3.25;;;20.40;99.90;;;;;;5049949;28;20027;-63
2023/02/21 11:10:41;;;;;;;6.10;3.17;;;20.30;99.90;;;;;;5048574;28;20487;-64
2023/02/21 11:13:15;;;;;;;6.80;3.08;;;20.20;99.90;;;;;;5048381;28;20378;-63
2023/02/21 11:15:44;;;;;;;15.95;4.63;;;20.10;99.90;;;;;;5049752;28;20465;-63
2023/02/21 11:18:16;;;;;;;10.35;4.45;;;20.00;99.90;;;;;;5049692;28;20501;-64
2023/02/21 11:20:45;;;;;;;11.00;5.05;;;20.00;99.90;;;;;;5049505;28;20109;-63
2023/02/21 11:24:01;;;;;;;11.38;4.30;;;19.90;99.90;;;;;;5049745;28;20021;-64
2023/02/21 11:26:38;;;;;;;12.02;3.92;;;19.90;99.90;;;;;;5047943;28;20072;-63
2023/02/21 11:29:16;;;;;;;11.25;4.78;;;19.90;99.90;;;;;;5049455;28;20021;-64
2023/02/21 11:31:44;;;;;;;10.23;5.00;;;19.80;99.90;;;;;;5049637;28;20275;-64
2023/02/21 11:34:13;;;;;;;14.10;4.95;;;19.90;99.90;;;;;;5049418;28;20017;-63
2023/02/21 11:36:44;;;;;;;17.30;6.80;;;19.90;99.90;;;;;;5049381;28;20033;-63
2023/02/21 11:39:26;;;;;;;15.32;5.10;;;19.90;99.90;;;;;;5049400;28;20100;-63
2023/02/21 11:41:56;;;;;;;14.10;5.10;;;19.90;99.90;;;;;;5049628;28;20056;-63
2023/02/21 11:44:41;;;;;;;15.38;5.47;;;19.80;99.90;;;;;;5049520;28;20111;-64
2023/02/21 11:47:35;;;;;;;11.80;5.22;;;19.80;99.90;;;;;;5048063;28;20520;-63
2023/02/21 11:50:32;;;;;;;16.00;6.82;;;19.80;99.90;;;;;;5049126;28;20071;-64
2023/02/21 11:53:21;;;;;;;8.45;5.28;;;19.80;99.90;;;;;;5049460;28;20025;-64
2023/02/21 11:56:06;;;;;;;12.77;5.22;;;19.70;99.90;;;;;;5049628;28;20107;-62
2023/02/21 11:58:50;;;;;;;14.43;4.90;;;19.70;99.90;;;;;;5047887;28;20041;-64
2023/02/21 12:01:27;;;;;;;18.63;5.43;;;19.60;99.90;;;;;;5049321;28;20018;-63
2023/02/21 12:04:08;;;;;;;12.57;4.80;;;19.60;99.90;;;;;;5049071;28;20025;-65
2023/02/21 12:06:48;;;;;;;11.63;4.60;;;19.60;99.90;;;;;;5053030;28;20505;-64
2023/02/21 12:09:28;;;;;;;13.30;4.32;;;19.60;99.90;;;;;;5053155;28;20751;-64
2023/02/21 12:12:13;;;;;;;12.13;5.00;;;19.60;99.90;;;;;;5053189;28;20029;-64
2023/02/21 12:14:51;;;;;;;;;;;19.60;99.90;;;;;;5053632;28;20049;-64
2023/02/21 12:17:36;;;;;;;14.23;4.90;;;19.60;99.90;;;;;;5051921;28;19952;-64
2023/02/21 12:20:25;;;;;;;12.40;5.40;;;19.60;99.90;;;;;;5052936;28;20046;-64
2023/02/21 12:22:58;;;;;;;11.68;4.82;;;19.60;99.90;;;;;;5053465;28;20025;-64
2023/02/21 12:25:41;;;;;;;22.67;5.70;;;19.60;99.90;;;;;;5052944;28;20425;-64
2023/02/21 12:28:22;;;;;;;16.52;5.22;;;19.60;99.90;;;;;;5052819;28;20523;-64
2023/02/21 12:31:17;;;;;;;14.45;5.68;;;19.60;99.90;;;;;;5052947;28;20053;-64
2023/02/21 12:34:14;;;;;;;16.38;5.65;;;19.60;99.90;;;;;;5052632;28;20044;-64
2023/02/21 12:36:47;;;;;;;20.42;4.95;;;19.60;99.90;;;;;;5052830;28;20067;-63
2023/02/21 12:39:39;;;;;;;12.85;4.30;;;19.50;99.90;;;;;;5052510;28;20029;-64
2023/02/21 12:42:10;;;;;;;9.93;3.80;;;19.50;99.90;;;;;;5052807;28;20021;-64
2023/02/21 12:44:57;;;;;;;23.40;6.45;;;19.50;99.90;;;;;;5052555;28;20024;-64
2023/02/21 12:47:31;;;;;;;20.88;7.95;;;19.50;99.90;;;;;;5041479;28;20111;-64
2023/02/21 12:50:16;;;;;;;16.95;6.70;;;19.50;99.90;;;;;;5052276;28;20021;-63
2023/02/21 12:52:53;;;;;;;19.65;4.75;;;19.60;99.90;;;;;;5052505;28;20025;-63
2023/02/21 12:55:26;;;;;;;14.70;5.32;;;19.50;99.90;;;;;;5052921;28;20079;-65
2023/02/21 12:58:09;;;;;;;25.35;4.55;;;19.60;99.90;;;;;;5052747;28;20508;-64
2023/02/21 13:00:43;;;;;;;11.50;4.38;;;19.50;99.90;;;;;;5052349;28;20100;-63
2023/02/21 13:03:30;;;;;;;14.73;4.40;;;19.50;99.90;;;;;;5052359;28;20453;-64
2023/02/21 13:06:04;;;;;;;13.93;4.18;;;19.40;99.90;;;;;;5052289;28;20021;-64
2023/02/21 13:08:49;;;;;;;14.98;4.20;;;19.40;99.90;;;;;;5052136;28;20029;-64
2023/02/21 13:11:24;;;;;;;14.75;4.07;;;19.40;99.90;;;;;;5052187;28;20027;-63
2023/02/21 13:13:52;;;;;;;14.20;4.55;;;19.40;99.90;;;;;;5052558;28;20032;-63
2023/02/21 13:16:20;;;;;;;15.75;3.92;;;19.40;99.90;;;;;;5051685;28;20025;-63
2023/02/21 13:19:02;;;;;;;17.88;4.40;;;19.40;99.90;;;;;;5051805;28;20029;-63
2023/02/21 13:21:41;;;;;;;13.48;4.40;;;19.40;99.90;;;;;;5051981;28;20025;-64
2023/02/21 13:24:28;;;;;;;11.43;4.57;;;19.40;99.90;;;;;;5050582;28;20525;-63
2023/02/21 13:27:01;;;;;;;14.13;5.03;;;19.40;99.90;;;;;;5051899;28;20485;-63
2023/02/21 13:29:34;;;;;;;11.02;5.43;;;19.40;99.90;;;;;;5051652;28;20039;-64
2023/02/21 13:32:20;;;;;;;13.25;6.50;;;19.40;99.90;;;;;;5051666;28;20048;-67
2023/02/21 13:35:00;;;;;;;13.73;7.10;;;19.40;99.90;;;;;;5051576;28;20537;-67
2023/02/21 13:37:30;;;;;;;18.92;6.85;;;19.40;99.90;;;;;;5050438;28;20040;-65
2023/02/21 13:40:25;;;;;;;14.63;4.63;;;19.40;99.90;;;;;;5051534;28;20025;-64
2023/02/21 13:43:02;;;;;;;11.82;3.28;;;19.40;99.90;;;;;;5050688;28;20041;-62
2023/02/21 13:45:30;;;;;;;10.27;3.70;;;19.40;99.90;;;;;;5051488;28;20386;-63
2023/02/21 13:47:58;;;;;;;14.10;3.72;;;19.30;99.90;;;;;;5051217;28;20025;-63
2023/02/21 13:50:38;;;;;;;20.27;5.03;;;19.30;99.90;;;;;;5051068;28;20017;-61
2023/02/21 13:53:19;;;;;;;22.80;5.95;;;19.20;99.90;;;;;;5051199;28;20028;-62
2023/02/21 13:56:07;;;;;;;21.98;5.43;;;19.20;99.90;;;;;;5051173;28;20050;-67
2023/02/21 13:58:42;;;;;;;26.45;5.90;;;19.20;99.90;;;;;;5049825;28;20375;-65
2023/02/21 14:01:30;;;;;;;29.75;7.13;;;19.20;99.90;;;;;;5051257;28;20025;-65
2023/02/21 14:03:58;;;;;;;22.65;6.80;;;19.10;99.90;;;;;;5050958;28;20039;-65
2023/02/21 14:06:25;;;;;;;26.63;7.40;;;19.10;99.90;;;;;;5051441;28;20439;-65
2023/02/21 14:08:59;;;;;;;24.67;7.13;;;19.10;99.90;;;;;;5051263;28;20494;-64
2023/02/21 14:11:35;;;;;;;;;;;19.10;99.90;;;;;;5051345;28;20025;-66
2023/02/21 14:14:23;;;;;;;20.67;5.85;;;19.10;99.90;;;;;;5049789;28;19905;-64
2023/02/21 14:17:04;;;;;;;27.00;7.07;;;19.10;99.90;;;;;;5051076;28;20037;-64
2023/02/21 14:19:35;;;;;;;35.65;8.35;;;19.10;99.90;;;;;;5050690;28;20025;-63
2023/02/21 14:22:15;;;;;;;24.88;7.38;;;19.10;99.90;;;;;;5049432;28;20028;-65
2023/02/21 14:24:47;;;;;;;43.97;7.93;;;19.10;99.90;;;;;;5049389;28;20029;-64
2023/02/21 14:27:14;;;;;;;25.50;8.15;;;19.10;99.90;;;;;;5049874;28;20024;-63
2023/02/21 14:29:59;;;;;;;26.08;7.60;;;19.10;99.90;;;;;;5050359;28;20355;-66
2023/02/21 14:32:37;;;;;;;;;;;19.10;99.90;;;;;;5050846;28;20044;-65
2023/02/21 14:35:20;;;;;;;29.30;5.90;;;19.10;99.90;;;;;;5065566;28;19904;-64
2023/02/21 14:38:04;;;;;;;31.08;6.70;;;19.10;99.90;;;;;;5048954;28;20037;-64
2023/02/21 14:41:13;;;;;;;28.73;6.88;;;19.00;99.90;;;;;;5049186;28;20017;-63
2023/02/21 14:43:53;;;;;;;30.75;6.70;;;19.10;99.90;;;;;;5050365;28;20033;-64
2023/02/21 14:46:26;;;;;;;29.85;7.45;;;19.10;99.90;;;;;;5050255;28;20710;-64
2023/02/21 14:49:17;;;;;;;37.20;8.35;;;19.10;99.90;;;;;;5050438;28;20028;-66
2023/02/21 14:51:49;;;;;;;47.58;8.70;;;19.10;99.90;;;;;;5050198;28;20100;-65
2023/02/21 14:54:40;;;;;;;36.50;7.35;;;19.10;99.90;;;;;;5050222;28;20036;-64
2023/02/21 14:57:37;;;;;;;34.63;7.80;;;19.10;99.90;;;;;;5050041;28;20031;-64
2023/02/21 15:00:32;;;;;;;40.85;8.38;;;19.10;99.90;;;;;;5050116;28;20017;-65
2023/02/21 15:03:10;;;;;;;37.95;7.95;;;19.10;99.90;;;;;;5049791;28;20413;-65
2023/02/21 15:05:50;;;;;;;35.63;8.55;;;19.20;99.90;;;;;;5049989;28;20025;-61
2023/02/21 15:08:24;;;;;;;31.42;6.85;;;19.20;99.90;;;;;;5049772;28;20032;-63
2023/02/21 15:11:04;;;;;;;45.10;7.68;;;19.20;99.90;;;;;;5050409;28;20017;-64
2023/02/21 15:13:34;;;;;;;42.92;7.25;;;19.20;99.90;;;;;;5049808;28;20510;-64
2023/02/21 15:16:08;;;;;;;24.77;5.15;;;19.20;99.90;;;;;;5049819;28;20466;-64
2023/02/21 15:18:40;;;;;;;21.80;5.00;;;19.10;99.90;;;;;;5048300;28;20043;-62
2023/02/21 15:21:10;;;;;;;32.28;5.07;;;19.10;99.90;;;;;;5049782;28;20025;-62
2023/02/21 15:23:48;;;;;;;30.17;5.95;;;19.00;99.90;;;;;;5049769;28;20017;-63
2023/02/21 15:26:26;;;;;;;28.23;5.18;;;19.00;99.90;;;;;;5048243;28;20463;-63
2023/02/21 15:29:08;;;;;;;33.78;5.88;;;18.90;99.90;;;;;;5050142;28;20129;-63
2023/02/21 15:31:41;;;;;;;25.00;4.60;;;18.90;99.90;;;;;;5049465;28;20051;-63
2023/02/21 15:34:26;;;;;;;34.55;5.05;;;18.90;99.90;;;;;;5049629;28;20500;-62